Time;durP1;ratioP1;P1;durP2;ratioP2;P2;SDS_P1;SDS_P2;PMS_P1;PMS_P2;Temp;Humidity;BMP_temperature;BMP_pressure;BME280_temperature;BME280_humidity;BME280_pressure;Samples;Min_cycle;Max_cycle;Signal;HPM_P1;HPM_P2
2023/06/30 00:00:12;;;;;;;;;;;;;;;17.32;72.78;100732.94;107616;1256;97902;-67
2023/06/30 00:03:03;;;;;;;;;;;;;;;17.29;72.51;100732.19;107628;1254;113019;-66
2023/06/30 00:05:32;;;;;;;;;;;;;;;17.27;73.02;100735.70;107648;1253;110037;-65
2023/06/30 00:08:00;;;;;;;;;;;;;;;17.22;73.03;100734.41;107587;1252;108047;-68
2023/06/30 00:10:28;;;;;;;;;;;;;;;17.18;72.73;100733.84;107612;1254;97779;-69
2023/06/30 00:12:56;;;;;;;;;;;;;;;17.16;72.47;100730.96;107547;1254;97812;-66
2023/06/30 00:15:25;;;;;;;;;;;;;;;17.18;72.26;100729.44;107618;1254;110583;-66
2023/06/30 00:17:53;;;;;;;;;;;;;;;17.16;73.46;100734.58;107621;1253;109259;-68
2023/06/30 00:20:23;;;;;;;;;;;;;;;17.07;73.21;100740.13;107566;1254;108010;-67
2023/06/30 00:22:52;;;;;;;;;;;;;;;17.04;72.73;100741.59;107695;1251;97915;-67
2023/06/30 00:25:20;;;;;;;;;;;;;;;17.03;72.73;100744.89;107664;1251;97899;-67
2023/06/30 00:27:48;;;;;;;;;;;;;;;17.06;72.48;100742.85;107635;1255;111124;-66
2023/06/30 00:30:16;;;;;;;;;;;;;;;17.06;72.35;100741.34;107629;1251;109237;-67
2023/06/30 00:32:44;;;;;;;;;;;;;;;17.06;72.39;100740.61;107572;1253;107288;-66
2023/06/30 00:35:12;;;;;;;;;;;;;;;17.04;71.97;100741.02;107606;1254;97857;-68
2023/06/30 00:37:41;;;;;;;;;;;;;;;17.06;72.14;100742.81;107670;1251;97909;-67
2023/06/30 00:40:10;;;;;;;;;;;;;;;17.09;71.87;100744.48;107620;1251;111837;-66
2023/06/30 00:42:39;;;;;;;;;;;;;;;17.11;71.86;100742.77;107648;1251;109794;-66
2023/06/30 00:45:08;;;;;;;;;;;;;;;17.13;71.84;100740.21;107659;1251;108227;-67
2023/06/30 00:47:37;;;;;;;;;;;;;;;17.12;71.34;100737.27;107611;1251;97812;-67
2023/06/30 00:50:05;;;;;;;;;;;;;;;17.09;71.10;100741.94;107616;1251;97710;-68
2023/06/30 00:52:34;;;;;;;;;;;;;;;17.08;71.15;100736.10;107658;1250;111720;-67
2023/06/30 00:55:03;;;;;;;;;;;;;;;17.06;71.24;100737.36;107620;1251;109872;-67
2023/06/30 00:57:31;;;;;;;;;;;;;;;17.07;71.68;100736.24;107639;1251;106994;-67
2023/06/30 01:00:05;;;;;;;;;;;;;;;17.07;71.88;100743.05;107569;1252;97835;-67
2023/06/30 01:02:36;;;;;;;;;;;;;;;17.06;71.87;100743.19;107613;1251;97816;-66
2023/06/30 01:05:25;;;;;;;;;;;;;;;17.03;71.57;100739.88;107654;1251;112154;-67
2023/06/30 01:08:05;;;;;;;;;;;;;;;16.98;71.67;100735.97;107613;1250;109715;-66
2023/06/30 01:10:33;;;;;;;;;;;;;;;16.95;71.37;100735.02;107581;1251;107347;-66
2023/06/30 01:13:05;;;;;;;;;;;;;;;16.91;71.45;100734.16;107602;1251;97812;-67
2023/06/30 01:15:34;;;;;;;;;;;;;;;16.88;71.45;100734.54;107651;1253;97698;-67
2023/06/30 01:18:03;;;;;;;;;;;;;;;16.84;71.95;100734.59;107589;1254;112654;-67
2023/06/30 01:20:35;;;;;;;;;;;;;;;16.74;71.78;100731.40;107551;1254;109721;-65
2023/06/30 01:23:26;;;;;;;;;;;;;;;16.64;71.70;100728.81;107618;1250;108438;-68
2023/06/30 01:25:58;;;;;;;;;;;;;;;16.59;71.91;100731.71;107552;1251;97700;-68
2023/06/30 01:28:28;;;;;;;;;;;;;;;16.59;72.15;100732.26;107635;1255;97819;-67
2023/06/30 01:30:57;;;;;;;;;;;;;;;16.55;72.01;100733.77;107637;1256;111120;-65
2023/06/30 01:33:27;;;;;;;;;;;;;;;16.53;72.03;100731.52;107656;1251;109618;-66
2023/06/30 01:35:56;;;;;;;;;;;;;;;16.48;72.12;100732.55;107610;1251;108385;-67
2023/06/30 01:38:24;;;;;;;;;;;;;;;16.48;71.96;100732.23;107539;1254;98004;-66
2023/06/30 01:40:54;;;;;;;;;;;;;;;16.48;72.44;100730.75;107666;1254;97807;-66
2023/06/30 01:43:23;;;;;;;;;;;;;;;16.42;71.98;100734.52;107636;1251;111362;-68
2023/06/30 01:45:52;;;;;;;;;;;;;;;16.38;72.35;100732.48;107650;1251;110237;-70
2023/06/30 01:48:20;;;;;;;;;;;;;;;16.32;71.94;100730.04;107604;1251;108534;-67
2023/06/30 01:50:49;;;;;;;;;;;;;;;16.33;72.14;100732.34;107573;1251;97960;-67
2023/06/30 01:53:17;;;;;;;;;;;;;;;16.32;72.47;100730.60;107567;1252;97697;-67
2023/06/30 01:55:47;;;;;;;;;;;;;;;16.33;72.70;100727.42;107632;1254;111508;-67
2023/06/30 01:58:18;;;;;;;;;;;;;;;16.32;72.66;100731.29;107670;1254;110066;-66
2023/06/30 02:00:47;;;;;;;;;;;;;;;16.29;72.65;100735.81;107584;1254;108081;-67
2023/06/30 02:03:15;;;;;;;;;;;;;;;16.25;72.80;100739.87;107630;1251;97809;-67
2023/06/30 02:05:45;;;;;;;;;;;;;;;16.25;72.88;100740.58;107613;1251;97893;-66
2023/06/30 02:08:14;;;;;;;;;;;;;;;16.24;72.88;100741.23;107602;1254;110447;-66
2023/06/30 02:10:42;;;;;;;;;;;;;;;16.22;72.69;100737.30;107597;1254;109823;-66
2023/06/30 02:13:11;;;;;;;;;;;;;;;16.21;72.96;100742.83;107623;1251;107515;-67
2023/06/30 02:15:40;;;;;;;;;;;;;;;16.20;73.05;100749.67;107574;1254;98278;-67
2023/06/30 02:18:08;;;;;;;;;;;;;;;16.20;73.33;100750.02;107560;1254;97809;-66
2023/06/30 02:20:37;;;;;;;;;;;;;;;16.19;73.39;100749.92;107619;1254;111462;-66
2023/06/30 02:23:05;;;;;;;;;;;;;;;16.18;73.27;100748.64;107587;1256;109437;-67
2023/06/30 02:25:33;;;;;;;;;;;;;;;16.15;73.10;100751.95;107593;1251;108236;-67
2023/06/30 02:28:01;;;;;;;;;;;;;;;16.11;73.14;100752.89;107571;1251;97819;-66
2023/06/30 02:30:29;;;;;;;;;;;;;;;16.09;73.23;100750.92;107584;1251;97847;-66
2023/06/30 02:32:58;;;;;;;;;;;;;;;16.09;73.04;100755.38;107546;1256;111170;-66
2023/06/30 02:35:26;;;;;;;;;;;;;;;16.07;73.18;100755.83;107617;1253;110116;-67
2023/06/30 02:37:54;;;;;;;;;;;;;;;16.06;73.47;100755.08;107520;1251;108971;-65
2023/06/30 02:40:25;;;;;;;;;;;;;;;16.06;73.26;100750.19;107590;1252;97825;-68
2023/06/30 02:42:54;;;;;;;;;;;;;;;16.06;73.68;100751.45;107449;1254;97818;-70
2023/06/30 02:45:22;;;;;;;;;;;;;;;16.03;74.07;100751.02;107541;1251;111024;-69
2023/06/30 02:47:50;;;;;;;;;;;;;;;15.96;73.77;100752.76;107603;1254;110044;-67
2023/06/30 02:50:22;;;;;;;;;;;;;;;15.94;74.11;100754.55;107530;1254;107241;-66
2023/06/30 02:52:50;;;;;;;;;;;;;;;15.95;73.90;100753.36;107540;1257;97969;-68
2023/06/30 02:55:18;;;;;;;;;;;;;;;15.95;73.83;100755.30;107617;1254;97822;-68
2023/06/30 02:57:46;;;;;;;;;;;;;;;15.97;73.99;100754.06;107596;1254;111321;-68
2023/06/30 03:00:15;;;;;;;;;;;;;;;16.00;74.71;100748.00;107469;1254;109381;-67
2023/06/30 03:02:43;;;;;;;;;;;;;;;16.04;74.62;100738.70;107420;1254;107798;-66
2023/06/30 03:05:13;;;;;;;;;;;;;;;16.10;74.69;100739.06;107547;1256;97953;-67
2023/06/30 03:07:41;;;;;;;;;;;;;;;16.18;74.76;100745.59;107554;1254;97893;-68
2023/06/30 03:10:10;;;;;;;;;;;;;;;16.26;74.72;100746.89;107546;1254;111912;-67
2023/06/30 03:12:38;;;;;;;;;;;;;;;16.34;74.63;100746.11;107551;1254;109733;-67
2023/06/30 03:15:07;;;;;;;;;;;;;;;16.41;74.53;100748.73;107584;1254;108874;-66
2023/06/30 03:17:37;;;;;;;;;;;;;;;16.46;74.02;100750.92;107568;1256;97771;-67
2023/06/30 03:20:12;;;;;;;;;;;;;;;16.52;74.15;100751.65;107535;1256;97733;-67
2023/06/30 03:22:41;;;;;;;;;;;;;;;16.58;73.72;100751.33;107544;1254;111213;-67
2023/06/30 03:25:09;;;;;;;;;;;;;;;16.66;73.82;100751.02;107592;1254;108925;-66
2023/06/30 03:27:37;;;;;;;;;;;;;;;16.71;73.28;100748.91;107555;1256;107707;-66
2023/06/30 03:30:06;;;;;;;;;;;;;;;16.76;72.83;100746.98;107605;1254;97815;-67
2023/06/30 03:32:36;;;;;;;;;;;;;;;16.80;72.42;100745.31;107663;1255;97713;-67
2023/06/30 03:35:05;;;;;;;;;;;;;;;16.80;72.10;100743.07;107600;1256;111401;-66
2023/06/30 03:37:33;;;;;;;;;;;;;;;16.82;71.72;100745.39;107573;1256;109654;-67
2023/06/30 03:40:05;;;;;;;;;;;;;;;16.86;71.52;100741.63;107612;1251;107903;-68
2023/06/30 03:42:34;;;;;;;;;;;;;;;16.91;71.10;100738.70;107521;1257;97935;-71
2023/06/30 03:45:03;;;;;;;;;;;;;;;16.96;70.80;100740.58;107563;1254;97813;-67
2023/06/30 03:47:33;;;;;;;;;;;;;;;17.02;70.63;100744.60;107576;1254;110766;-68
2023/06/30 03:50:01;;;;;;;;;;;;;;;17.05;69.83;100742.62;107539;1254;109839;-66
2023/06/30 03:52:30;;;;;;;;;;;;;;;17.06;69.73;100735.70;107589;1256;108118;-67
2023/06/30 03:54:58;;;;;;;;;;;;;;;17.06;69.09;100733.04;107538;1256;97930;-66
2023/06/30 03:57:26;;;;;;;;;;;;;;;17.06;69.28;100736.33;107682;1254;97812;-66
2023/06/30 03:59:54;;;;;;;;;;;;;;;17.10;69.58;100734.22;107627;1254;113164;-66
2023/06/30 04:02:22;;;;;;;;;;;;;;;17.13;69.48;100734.36;107537;1257;109948;-68
2023/06/30 04:04:50;;;;;;;;;;;;;;;17.19;69.61;100736.58;107614;1254;108021;-66
2023/06/30 04:07:19;;;;;;;;;;;;;;;17.25;69.25;100739.85;107607;1257;97825;-67
2023/06/30 04:09:47;;;;;;;;;;;;;;;17.31;69.20;100740.05;107618;1254;97809;-66
2023/06/30 04:12:16;;;;;;;;;;;;;;;17.39;69.28;100740.91;107504;1251;111934;-67
2023/06/30 04:14:44;;;;;;;;;;;;;;;17.47;68.91;100734.59;107645;1255;109117;-66
2023/06/30 04:17:12;;;;;;;;;;;;;;;17.53;68.90;100737.13;107638;1255;108380;-66
2023/06/30 04:19:40;;;;;;;;;;;;;;;17.59;68.05;100736.63;107628;1254;97815;-66
2023/06/30 04:22:09;;;;;;;;;;;;;;;17.62;67.66;100736.95;107647;1251;97835;-67
2023/06/30 04:24:37;;;;;;;;;;;;;;;17.64;67.17;100735.42;107603;1256;110815;-66
2023/06/30 04:27:06;;;;;;;;;;;;;;;17.66;67.23;100735.00;107624;1251;109453;-67
2023/06/30 04:29:34;;;;;;;;;;;;;;;17.73;67.20;100731.27;107596;1256;107771;-65
2023/06/30 04:32:03;;;;;;;;;;;;;;;17.78;67.00;100735.08;107607;1254;97864;-66
2023/06/30 04:34:31;;;;;;;;;;;;;;;17.86;67.33;100734.27;107654;1254;97804;-70
2023/06/30 04:36:59;;;;;;;;;;;;;;;17.94;67.13;100730.25;107627;1251;111848;-69
2023/06/30 04:39:28;;;;;;;;;;;;;;;18.01;66.97;100735.95;107607;1251;110123;-67
2023/06/30 04:41:56;;;;;;;;;;;;;;;18.07;66.73;100738.65;107592;1251;108685;-71
2023/06/30 04:44:24;;;;;;;;;;;;;;;18.14;66.57;100738.16;107551;1256;97836;-67
2023/06/30 04:46:53;;;;;;;;;;;;;;;18.24;66.51;100737.34;107583;1251;97860;-66
2023/06/30 04:49:21;;;;;;;;;;;;;;;18.35;66.31;100740.71;107666;1251;111597;-67
2023/06/30 04:51:49;;;;;;;;;;;;;;;18.46;66.04;100745.38;107601;1251;109654;-66
2023/06/30 04:54:19;;;;;;;;;;;;;;;18.56;65.75;100744.73;107580;1254;108690;-67
2023/06/30 04:56:47;;;;;;;;;;;;;;;18.64;65.59;100748.13;107563;1257;97858;-68
2023/06/30 04:59:15;;;;;;;;;;;;;;;18.73;65.71;100752.86;107672;1251;97917;-67
2023/06/30 05:01:43;;;;;;;;;;;;;;;18.81;65.43;100750.60;107658;1257;111235;-69
2023/06/30 05:04:12;;;;;;;;;;;;;;;18.88;65.21;100754.92;107522;1254;109674;-66
2023/06/30 05:06:40;;;;;;;;;;;;;;;19.00;65.10;100752.48;107516;1254;108275;-66
2023/06/30 05:09:08;;;;;;;;;;;;;;;19.10;64.69;100750.80;107612;1251;98568;-67
2023/06/30 05:11:36;;;;;;;;;;;;;;;19.19;64.15;100746.95;107529;1251;97827;-67
2023/06/30 05:14:04;;;;;;;;;;;;;;;19.27;63.65;100745.60;107569;1254;111282;-67
2023/06/30 05:16:33;;;;;;;;;;;;;;;19.31;63.47;100752.73;107639;1254;110105;-67
2023/06/30 05:19:02;;;;;;;;;;;;;;;19.30;62.47;100751.77;107635;1254;108154;-66
2023/06/30 05:21:30;;;;;;;;;;;;;;;19.27;62.06;100754.83;107623;1255;97830;-66
2023/06/30 05:23:59;;;;;;;;;;;;;;;19.19;60.77;100753.48;107540;1251;97943;-69
2023/06/30 05:26:27;;;;;;;;;;;;;;;19.11;60.51;100755.46;107596;1251;112422;-71
2023/06/30 05:28:55;;;;;;;;;;;;;;;19.05;60.71;100754.53;107548;1251;109628;-69
2023/06/30 05:31:32;;;;;;;;;;;;;;;18.96;60.76;100750.52;107531;1251;107404;-71
2023/06/30 05:34:02;;;;;;;;;;;;;;;18.89;60.57;100753.63;107509;1254;97799;-72
2023/06/30 05:36:31;;;;;;;;;;;;;;;18.84;60.49;100755.09;107644;1254;97835;-67
2023/06/30 05:39:02;;;;;;;;;;;;;;;18.83;60.35;100755.40;107518;1254;111340;-67
2023/06/30 05:41:30;;;;;;;;;;;;;;;18.86;60.40;100752.30;107595;1251;109914;-67
2023/06/30 05:43:58;;;;;;;;;;;;;;;18.92;60.04;100745.77;107585;1251;108197;-68
2023/06/30 05:46:27;;;;;;;;;;;;;;;19.00;60.17;100747.66;107719;1254;97827;-66
2023/06/30 05:48:55;;;;;;;;;;;;;;;19.07;60.29;100745.85;107623;1251;97684;-67
2023/06/30 05:51:23;;;;;;;;;;;;;;;19.12;60.01;100746.45;107734;1251;111072;-65
2023/06/30 05:53:51;;;;;;;;;;;;;;;19.19;60.31;100749.39;107515;1255;110024;-67
2023/06/30 05:56:19;;;;;;;;;;;;;;;19.28;60.11;100744.60;107641;1255;107630;-67
2023/06/30 05:58:47;;;;;;;;;;;;;;;19.40;59.58;100746.52;107577;1251;97704;-67
2023/06/30 06:01:16;;;;;;;;;;;;;;;19.50;58.66;100743.97;107658;1253;97914;-66
2023/06/30 06:03:44;;;;;;;;;;;;;;;19.62;58.94;100742.81;107638;1251;111742;-68
2023/06/30 06:06:13;;;;;;;;;;;;;;;19.72;58.16;100744.98;107565;1251;109648;-67
2023/06/30 06:08:48;;;;;;;;;;;;;;;19.82;57.77;100743.36;107516;1251;107004;-68
2023/06/30 06:11:16;;;;;;;;;;;;;;;19.90;57.14;100744.92;107561;1254;97848;-68
2023/06/30 06:13:44;;;;;;;;;;;;;;;19.96;56.69;100736.35;107550;1251;98232;-69
2023/06/30 06:16:12;;;;;;;;;;;;;;;20.05;56.40;100736.87;107551;1251;110521;-67
2023/06/30 06:18:41;;;;;;;;;;;;;;;20.13;56.28;100736.63;107522;1251;110039;-66
2023/06/30 06:21:09;;;;;;;;;;;;;;;20.24;56.50;100738.88;107508;1254;108039;-66
2023/06/30 06:23:37;;;;;;;;;;;;;;;20.36;55.82;100741.13;107525;1251;97819;-66
2023/06/30 06:26:06;;;;;;;;;;;;;;;20.45;55.30;100741.73;107608;1254;97710;-70
2023/06/30 06:28:34;;;;;;;;;;;;;;;20.55;55.76;100736.70;107679;1255;112031;-67
2023/06/30 06:31:02;;;;;;;;;;;;;;;20.62;55.31;100735.16;107635;1251;109543;-67
2023/06/30 06:33:30;;;;;;;;;;;;;;;20.68;55.44;100733.13;107654;1254;107533;-67
2023/06/30 06:35:59;;;;;;;;;;;;;;;20.75;55.41;100727.34;107699;1251;97886;-66
2023/06/30 06:38:27;;;;;;;;;;;;;;;20.82;55.51;100725.43;107652;1251;97759;-68
2023/06/30 06:40:55;;;;;;;;;;;;;;;20.90;54.83;100729.75;107563;1254;110789;-66
2023/06/30 06:43:26;;;;;;;;;;;;;;;21.02;54.77;100722.91;107556;1251;109193;-67
2023/06/30 06:45:54;;;;;;;;;;;;;;;21.17;55.00;100716.66;107572;1255;108267;-67
2023/06/30 06:48:26;;;;;;;;;;;;;;;21.35;54.79;100717.37;107611;1251;97922;-67
2023/06/30 06:50:56;;;;;;;;;;;;;;;21.55;54.23;100711.33;107626;1254;97679;-69
2023/06/30 06:53:29;;;;;;;;;;;;;;;21.79;54.08;100716.77;107659;1251;111690;-67
2023/06/30 06:55:57;;;;;;;;;;;;;;;22.04;52.98;100712.91;107629;1251;109583;-68
2023/06/30 06:58:27;;;;;;;;;;;;;;;22.28;51.99;100706.21;107534;1254;107807;-66
2023/06/30 07:00:56;;;;;;;;;;;;;;;22.56;52.50;100699.23;107494;1251;97807;-66
2023/06/30 07:03:24;;;;;;;;;;;;;;;22.86;51.48;100707.73;107637;1254;97819;-67
2023/06/30 07:05:53;;;;;;;;;;;;;;;23.09;50.31;100708.78;107601;1251;111991;-67
2023/06/30 07:08:22;;;;;;;;;;;;;;;23.25;49.48;100706.38;107499;1251;109413;-66
2023/06/30 07:10:50;;;;;;;;;;;;;;;23.41;49.49;100706.76;107507;1251;107773;-68
2023/06/30 07:13:20;;;;;;;;;;;;;;;23.58;49.60;100701.17;107467;1251;98496;-67
2023/06/30 07:15:48;;;;;;;;;;;;;;;23.74;50.12;100706.58;107513;1251;97873;-66
2023/06/30 07:18:17;;;;;;;;;;;;;;;23.86;49.66;100707.60;107570;1251;111503;-66
2023/06/30 07:20:48;;;;;;;;;;;;;;;23.89;49.10;100704.52;107642;1251;108997;-65
2023/06/30 07:23:17;;;;;;;;;;;;;;;23.98;48.12;100709.27;107511;1251;107694;-68
2023/06/30 07:25:46;;;;;;;;;;;;;;;24.03;48.04;100705.38;107496;1251;97819;-69
2023/06/30 07:28:15;;;;;;;;;;;;;;;24.12;46.92;100708.92;107496;1254;97690;-67
2023/06/30 07:30:43;;;;;;;;;;;;;;;24.22;46.55;100708.73;107602;1251;112193;-68
2023/06/30 07:33:12;;;;;;;;;;;;;;;24.41;47.11;100704.78;107514;1251;109271;-67
2023/06/30 07:35:41;;;;;;;;;;;;;;;24.61;46.87;100708.05;107549;1254;108412;-65
2023/06/30 07:38:09;;;;;;;;;;;;;;;24.74;46.01;100708.67;107527;1251;97583;-65
2023/06/30 07:40:37;;;;;;;;;;;;;;;24.88;46.18;100705.81;107513;1251;97895;-66
2023/06/30 07:43:23;;;;;;;;;;;;;;;25.02;44.18;100712.44;107498;1251;111877;-66
2023/06/30 07:45:52;;;;;;;;;;;;;;;24.94;43.21;100716.52;107506;1254;109081;-67
2023/06/30 07:48:20;;;;;;;;;;;;;;;24.92;43.67;100707.67;107471;1254;107647;-66
2023/06/30 07:50:48;;;;;;;;;;;;;;;24.95;44.36;100711.27;107516;1251;97989;-67
2023/06/30 07:53:35;;;;;;;;;;;;;;;25.02;44.74;100706.38;107540;1253;97662;-66
2023/06/30 07:56:04;;;;;;;;;;;;;;;25.03;43.88;100709.67;107588;1254;111903;-65
2023/06/30 07:58:32;;;;;;;;;;;;;;;24.96;43.65;100705.91;107572;1254;109224;-67
2023/06/30 08:01:02;;;;;;;;;;;;;;;24.89;44.03;100706.87;107658;1251;108736;-67
2023/06/30 08:03:30;;;;;;;;;;;;;;;24.73;43.61;100711.83;106866;1253;1009510;-66
2023/06/30 08:05:58;;;;;;;;;;;;;;;24.63;44.45;100706.27;107655;1254;97835;-65
2023/06/30 08:08:29;;;;;;;;;;;;;;;24.56;44.23;100703.88;107654;1254;111870;-67
2023/06/30 08:10:58;;;;;;;;;;;;;;;24.50;44.29;100701.77;107647;1254;109997;-67
2023/06/30 08:13:26;;;;;;;;;;;;;;;24.46;44.65;100703.33;107492;1254;109095;-66
2023/06/30 08:15:55;;;;;;;;;;;;;;;24.48;44.93;100696.63;107610;1254;97901;-66
2023/06/30 08:18:26;;;;;;;;;;;;;;;24.54;45.12;100699.05;107665;1253;97707;-68
2023/06/30 08:21:02;;;;;;;;;;;;;;;24.63;44.57;100703.99;107662;1253;112066;-69
2023/06/30 08:23:30;;;;;;;;;;;;;;;24.67;44.79;100691.86;107712;1254;108706;-66
2023/06/30 08:25:58;;;;;;;;;;;;;;;24.71;43.81;100697.04;107607;1253;108558;-68
2023/06/30 08:28:26;;;;;;;;;;;;;;;24.80;44.49;100695.46;107553;1254;97956;-69
2023/06/30 08:30:54;;;;;;;;;;;;;;;24.90;44.23;100703.71;107651;1254;97761;-70
2023/06/30 08:33:29;;;;;;;;;;;;;;;24.96;43.03;100705.23;107618;1256;111348;-68
2023/06/30 08:36:01;;;;;;;;;;;;;;;25.04;43.41;100696.66;107450;1254;109252;-71
2023/06/30 08:38:30;;;;;;;;;;;;;;;25.22;43.55;100696.24;107474;1254;107990;-71
2023/06/30 08:40:59;;;;;;;;;;;;;;;25.47;43.31;100699.13;107544;1253;97847;-70
2023/06/30 08:43:29;;;;;;;;;;;;;;;25.77;42.38;100698.21;107600;1257;97948;-68
2023/06/30 08:45:58;;;;;;;;;;;;;;;25.92;40.89;100700.09;107608;1256;111479;-69
2023/06/30 08:48:27;;;;;;;;;;;;;;;26.18;41.98;100688.94;107640;1253;109732;-70
2023/06/30 08:50:55;;;;;;;;;;;;;;;26.47;41.70;100691.04;107615;1256;108533;-69
2023/06/30 08:53:24;;;;;;;;;;;;;;;26.65;40.74;100688.48;107516;1254;97831;-69
2023/06/30 08:55:54;;;;;;;;;;;;;;;26.78;41.16;100685.98;107582;1251;98933;-70
2023/06/30 08:58:22;;;;;;;;;;;;;;;26.96;39.60;100688.81;107626;1251;112353;-70
2023/06/30 09:00:55;;;;;;;;;;;;;;;27.00;39.47;100683.98;107529;1254;109936;-71
2023/06/30 09:03:23;;;;;;;;;;;;;;;27.02;39.00;100682.24;107626;1251;107540;-69
2023/06/30 09:05:53;;;;;;;;;;;;;;;27.19;39.88;100680.73;107558;1251;97816;-70
2023/06/30 09:08:23;;;;;;;;;;;;;;;27.37;39.09;100676.83;107564;1251;99275;-68
2023/06/30 09:10:53;;;;;;;;;;;;;;;27.53;38.76;100678.86;107564;1251;112570;-69
2023/06/30 09:13:23;;;;;;;;;;;;;;;27.74;38.34;100674.48;107607;1251;109947;-68
2023/06/30 09:15:54;;;;;;;;;;;;;;;28.01;38.26;100667.47;107539;1254;107110;-69
2023/06/30 09:18:22;;;;;;;;;;;;;;;28.38;37.63;100659.84;107550;1251;97990;-67
2023/06/30 09:20:53;;;;;;;;;;;;;;;28.66;38.18;100666.96;107578;1250;97708;-69
2023/06/30 09:23:24;;;;;;;;;;;;;;;28.79;37.27;100670.45;107614;1251;110749;-70
2023/06/30 09:25:53;;;;;;;;;;;;;;;28.97;36.33;100665.80;107538;1250;110184;-70
2023/06/30 09:28:22;;;;;;;;;;;;;;;29.18;35.91;100664.23;107505;1251;107820;-70
2023/06/30 09:30:58;;;;;;;;;;;;;;;29.35;35.64;100662.01;107510;1251;97928;-70
2023/06/30 09:33:29;;;;;;;;;;;;;;;29.15;35.15;100657.20;107611;1254;97893;-70
2023/06/30 09:35:58;;;;;;;;;;;;;;;28.94;35.71;100669.20;107555;1250;112280;-68
2023/06/30 09:38:28;;;;;;;;;;;;;;;28.70;36.09;100668.29;107673;1254;109116;-66
2023/06/30 09:40:56;;;;;;;;;;;;;;;28.55;36.37;100668.93;107643;1251;108767;-66
2023/06/30 09:43:25;;;;;;;;;;;;;;;28.41;36.50;100673.54;107656;1254;97838;-67
2023/06/30 09:45:54;;;;;;;;;;;;;;;28.59;36.68;100668.93;107550;1251;97922;-66
2023/06/30 09:48:38;;;;;;;;;;;;;;;29.08;36.18;100666.39;107585;1251;111405;-67
2023/06/30 09:51:07;;;;;;;;;;;;;;;29.59;34.92;100662.45;107584;1251;109692;-71
2023/06/30 09:53:36;;;;;;;;;;;;;;;29.83;33.48;100656.01;107506;1251;108150;-66
2023/06/30 09:56:06;;;;;;;;;;;;;;;29.88;33.35;100646.61;107620;1251;97912;-68
2023/06/30 09:58:35;;;;;;;;;;;;;;;29.67;33.91;100645.89;107688;1251;97727;-66
2023/06/30 10:01:04;;;;;;;;;;;;;;;29.80;34.15;100644.52;107666;1251;111386;-68
2023/06/30 10:03:32;;;;;;;;;;;;;;;30.04;33.51;100635.90;107524;1251;109529;-66
2023/06/30 10:06:01;;;;;;;;;;;;;;;30.24;32.59;100635.70;107577;1251;107919;-70
2023/06/30 10:08:30;;;;;;;;;;;;;;;30.75;33.10;100640.63;107509;1251;97700;-71
2023/06/30 10:10:58;;;;;;;;;;;;;;;31.17;32.36;100639.98;107573;1251;97810;-66
2023/06/30 10:13:28;;;;;;;;;;;;;;;31.09;32.65;100641.06;107601;1254;112164;-67
2023/06/30 10:15:56;;;;;;;;;;;;;;;30.87;32.49;100639.71;107668;1251;110110;-69
2023/06/30 10:18:24;;;;;;;;;;;;;;;30.69;32.02;100631.41;107584;1251;107776;-66
2023/06/30 10:20:55;;;;;;;;;;;;;;;30.26;31.47;100630.55;107597;1251;97975;-68
2023/06/30 10:23:23;;;;;;;;;;;;;;;29.80;32.91;100632.09;107551;1253;97825;-67
2023/06/30 10:25:52;;;;;;;;;;;;;;;29.54;33.78;100627.61;107579;1253;111800;-67
2023/06/30 10:28:21;;;;;;;;;;;;;;;29.48;35.34;100629.85;107592;1251;109223;-69
2023/06/30 10:30:51;;;;;;;;;;;;;;;29.62;35.54;100631.59;107661;1253;108302;-66
2023/06/30 10:33:19;;;;;;;;;;;;;;;30.28;34.72;100627.55;107652;1253;97864;-68
2023/06/30 10:35:49;;;;;;;;;;;;;;;31.17;33.64;100622.73;107653;1251;98294;-68
2023/06/30 10:38:18;;;;;;;;;;;;;;;32.01;32.05;100619.48;107616;1251;111785;-67
2023/06/30 10:40:47;;;;;;;;;;;;;;;32.87;32.53;100612.55;107600;1251;109687;-68
2023/06/30 10:43:17;;;;;;;;;;;;;;;33.55;30.43;100608.64;107532;1251;107070;-67
2023/06/30 10:46:14;;;;;;;;;;;;;;;33.62;28.89;100601.41;107535;1254;97876;-67
2023/06/30 10:48:43;;;;;;;;;;;;;;;32.97;29.98;100603.17;107495;1251;97714;-67
2023/06/30 10:51:11;;;;;;;;;;;;;;;32.28;30.16;100599.15;107561;1251;112104;-66
2023/06/30 10:53:44;;;;;;;;;;;;;;;31.46;31.07;100598.55;107657;1254;109927;-66
2023/06/30 10:56:12;;;;;;;;;;;;;;;30.82;32.49;100595.00;107658;1253;108739;-66
2023/06/30 10:58:42;;;;;;;;;;;;;;;30.63;33.08;100594.86;107691;1251;97838;-66
2023/06/30 11:01:13;;;;;;;;;;;;;;;30.76;32.87;100593.23;107686;1254;97723;-70
2023/06/30 11:03:56;;;;;;;;;;;;;;;30.71;32.81;100596.77;107660;1251;110822;-66
2023/06/30 11:06:25;;;;;;;;;;;;;;;30.41;33.22;100598.64;107626;1251;110607;-69
2023/06/30 11:09:01;;;;;;;;;;;;;;;30.07;34.96;100604.08;107506;1251;106883;-67
2023/06/30 11:11:29;;;;;;;;;;;;;;;29.66;37.15;100601.86;107487;1251;96954;-69
2023/06/30 11:14:04;;;;;;;;;;;;;;;29.20;37.85;100598.77;107541;1251;97889;-68
2023/06/30 11:17:02;;;;;;;;;;;;;;;29.15;38.70;100597.77;107565;1254;112709;-66
2023/06/30 11:19:31;;;;;;;;;;;;;;;30.14;38.64;100587.77;107537;1251;109788;-67
2023/06/30 11:22:19;;;;;;;;;;;;;;;30.93;37.24;100581.99;107551;1251;108208;-69
2023/06/30 11:24:48;;;;;;;;;;;;;;;31.70;36.61;100580.09;107549;1251;97842;-67
2023/06/30 11:27:17;;;;;;;;;;;;;;;31.86;35.92;100577.70;107655;1256;97828;-67
2023/06/30 11:29:45;;;;;;;;;;;;;;;31.71;35.65;100575.80;107654;1255;111845;-70
2023/06/30 11:32:15;;;;;;;;;;;;;;;31.46;35.75;100571.35;107615;1251;109628;-70
2023/06/30 11:34:44;;;;;;;;;;;;;;;31.23;36.45;100565.56;107610;1254;108154;-66
2023/06/30 11:37:12;;;;;;;;;;;;;;;31.51;36.68;100565.44;107590;1251;97829;-67
2023/06/30 11:39:49;;;;;;;;;;;;;;;32.62;35.71;100564.83;107586;1251;97796;-67
2023/06/30 11:42:17;;;;;;;;;;;;;;;33.63;32.40;100556.54;107639;1251;112255;-67
2023/06/30 11:44:48;;;;;;;;;;;;;;;34.35;30.82;100546.80;107624;1251;109590;-65
2023/06/30 11:47:17;;;;;;;;;;;;;;;34.90;30.07;100542.14;107689;1251;108246;-65
2023/06/30 11:49:47;;;;;;;;;;;;;;;35.43;29.33;100540.52;107511;1251;97825;-67
2023/06/30 11:52:16;;;;;;;;;;;;;;;35.31;29.17;100538.17;107597;1251;97713;-67
2023/06/30 11:54:44;;;;;;;;;;;;;;;35.88;27.97;100543.30;107514;1251;111258;-66
2023/06/30 11:57:13;;;;;;;;;;;;;;;36.53;26.68;100536.63;107511;1251;109179;-67
2023/06/30 11:59:41;;;;;;;;;;;;;;;37.21;25.21;100529.27;107671;1251;107955;-65
2023/06/30 12:02:10;;;;;;;;;;;;;;;37.88;24.61;100527.79;107516;1251;98291;-66
2023/06/30 12:04:45;;;;;;;;;;;;;;;38.40;22.58;100522.73;107505;1251;97808;-65
2023/06/30 12:07:14;;;;;;;;;;;;;;;38.87;22.07;100514.23;107488;1251;112087;-69
2023/06/30 12:09:43;;;;;;;;;;;;;;;39.56;20.69;100505.96;107476;1254;109385;-66
2023/06/30 12:12:24;;;;;;;;;;;;;;;39.77;21.22;100512.48;107498;1251;107386;-67
2023/06/30 12:14:53;;;;;;;;;;;;;;;40.18;20.94;100502.20;107461;1251;97892;-67
2023/06/30 12:17:22;;;;;;;;;;;;;;;40.58;19.86;100498.05;107537;1251;97814;-67
2023/06/30 12:19:50;;;;;;;;;;;;;;;40.52;19.36;100506.52;107537;1250;112218;-71
2023/06/30 12:22:29;;;;;;;;;;;;;;;40.11;17.71;100504.73;107495;1251;109952;-71
2023/06/30 12:24:58;;;;;;;;;;;;;;;40.06;18.99;100497.48;107534;1251;109367;-71
2023/06/30 12:27:27;;;;;;;;;;;;;;;39.77;18.14;100500.38;107467;1251;97806;-67
2023/06/30 12:29:55;;;;;;;;;;;;;;;38.57;19.79;100496.45;107632;1250;97716;-69
2023/06/30 12:32:27;;;;;;;;;;;;;;;38.30;20.90;100491.52;107544;1251;111326;-67